Time;durP1;ratioP1;P1;durP2;ratioP2;P2;SDS_P1;SDS_P2;PMS_P1;PMS_P2;Temp;Humidity;BMP_temperature;BMP_pressure;BME280_temperature;BME280_humidity;BME280_pressure;Samples;Min_cycle;Max_cycle;Signal;HPM_P1;HPM_P2
2023/06/15 00:05:58;;;;;;;8.77;3.67;;;17.00;99.90;;;;;;12399630;28;20055;-35
2023/06/15 00:12:00;;;;;;;8.57;3.33;;;16.90;99.90;;;;;;12407008;28;20088;-35
2023/06/15 00:18:03;;;;;;;10.77;3.55;;;16.70;99.90;;;;;;12415953;28;20046;-35
2023/06/15 00:24:05;;;;;;;5.50;3.30;;;16.50;99.90;;;;;;12419599;28;20038;-35
2023/06/15 00:30:10;;;;;;;5.78;3.20;;;16.20;99.90;;;;;;12402822;28;20119;-36
2023/06/15 00:36:12;;;;;;;6.32;3.17;;;16.10;99.90;;;;;;12403038;28;20137;-36
2023/06/15 00:42:14;;;;;;;7.40;3.22;;;16.20;99.90;;;;;;12398546;28;20049;-36
2023/06/15 00:48:16;;;;;;;4.75;3.22;;;16.20;99.90;;;;;;12424077;28;20190;-36
2023/06/15 00:54:23;;;;;;;5.45;3.00;;;16.40;99.90;;;;;;12408112;28;20648;-37
2023/06/15 01:00:25;;;;;;;6.85;3.53;;;16.40;99.90;;;;;;12432727;28;20468;-36
2023/06/15 01:06:31;;;;;;;6.88;3.42;;;16.60;99.90;;;;;;12402702;28;20053;-36
2023/06/15 01:12:40;;;;;;;5.07;3.05;;;16.70;99.90;;;;;;12413902;28;20486;-35
2023/06/15 01:18:46;;;;;;;6.22;3.03;;;16.50;99.90;;;;;;12409204;28;20784;-35
2023/06/15 01:25:02;;;;;;;6.35;2.83;;;16.40;99.90;;;;;;12416848;28;20065;-34
2023/06/15 01:31:04;;;;;;;8.05;3.40;;;16.30;99.90;;;;;;12391180;28;20084;-35
2023/06/15 01:37:06;;;;;;;8.75;3.22;;;16.20;99.90;;;;;;12413171;28;20072;-35
2023/06/15 01:43:11;;;;;;;9.90;2.92;;;16.00;99.90;;;;;;12410716;28;20482;-36
2023/06/15 01:49:13;;;;;;;4.43;2.95;;;16.10;99.90;;;;;;12398330;28;20050;-36
2023/06/15 01:55:15;;;;;;;6.10;3.25;;;16.00;99.90;;;;;;12415013;28;20292;-36
2023/06/15 02:01:18;;;;;;;4.85;3.10;;;15.60;99.90;;;;;;12409799;28;20050;-35
2023/06/15 02:07:20;;;;;;;6.82;3.40;;;15.60;99.90;;;;;;12414756;28;20079;-35
2023/06/15 02:13:22;;;;;;;4.93;2.80;;;15.60;99.90;;;;;;12406512;28;20038;-36
2023/06/15 02:19:24;;;;;;;4.85;2.97;;;15.60;99.90;;;;;;12420050;28;20053;-36
2023/06/15 02:25:29;;;;;;;7.22;2.80;;;15.50;99.90;;;;;;12418829;28;20057;-36
2023/06/15 02:31:31;;;;;;;5.68;2.70;;;15.70;99.90;;;;;;12409143;28;20045;-36
2023/06/15 02:37:33;;;;;;;8.43;2.78;;;15.90;99.90;;;;;;12408649;28;20057;-36
2023/06/15 02:43:35;;;;;;;6.93;3.17;;;15.80;99.90;;;;;;12417772;28;22115;-36
2023/06/15 02:49:37;;;;;;;6.97;2.95;;;15.70;99.90;;;;;;12415970;28;20049;-36
2023/06/15 02:55:42;;;;;;;7.57;2.15;;;15.50;99.90;;;;;;12415532;28;20514;-36
2023/06/15 03:01:44;;;;;;;6.50;3.00;;;15.40;99.90;;;;;;12413834;28;20096;-36
2023/06/15 03:07:46;;;;;;;4.80;2.67;;;15.50;99.90;;;;;;12412610;28;20046;-36
2023/06/15 03:13:48;;;;;;;4.20;2.55;;;15.40;99.90;;;;;;12433602;28;20312;-37
2023/06/15 03:19:50;;;;;;;6.50;2.95;;;15.30;99.90;;;;;;12404262;28;20050;-36
2023/06/15 03:25:52;;;;;;;5.95;3.15;;;15.40;99.90;;;;;;12413865;28;20054;-36
2023/06/15 03:31:54;;;;;;;4.70;2.75;;;15.20;99.90;;;;;;12425220;28;20374;-35
2023/06/15 03:37:56;;;;;;;5.28;3.15;;;15.10;99.90;;;;;;12403338;28;20046;-36
2023/06/15 03:43:59;;;;;;;5.65;3.53;;;14.90;99.90;;;;;;12388266;28;20208;-36
2023/06/15 03:50:01;;;;;;;7.40;2.97;;;14.90;99.90;;;;;;12421537;28;20077;-36
2023/06/15 03:56:03;;;;;;;6.43;3.38;;;14.90;99.90;;;;;;12330608;28;20054;-36
2023/06/15 04:02:08;;;;;;;5.47;3.20;;;15.00;99.90;;;;;;12380125;28;20051;-36
2023/06/15 04:08:10;;;;;;;;;;;15.10;99.90;;;;;;12365922;28;20047;-36
2023/06/15 04:14:12;;;;;;;5.10;3.10;;;15.30;99.90;;;;;;12380310;28;19928;-36
2023/06/15 04:20:15;;;;;;;6.18;3.33;;;15.50;99.90;;;;;;12416015;28;20604;-36
2023/06/15 04:26:20;;;;;;;9.60;3.20;;;15.70;99.90;;;;;;12421880;28;20113;-37
2023/06/15 04:32:25;;;;;;;4.53;2.80;;;15.70;99.90;;;;;;12398958;28;20054;-36
2023/06/15 04:38:29;;;;;;;10.73;3.50;;;15.50;99.90;;;;;;12416192;28;20046;-36
2023/06/15 04:44:31;;;;;;;5.13;3.70;;;15.80;99.90;;;;;;12388817;28;20518;-36
2023/06/15 04:50:35;;;;;;;6.85;3.60;;;16.40;99.90;;;;;;12384502;28;20989;-36
2023/06/15 04:56:37;;;;;;;6.30;3.88;;;16.70;99.90;;;;;;12419163;28;20077;-36
2023/06/15 05:02:39;;;;;;;8.20;3.90;;;16.50;99.90;;;;;;12424214;28;20486;-36
2023/06/15 05:08:41;;;;;;;6.85;3.72;;;16.50;99.90;;;;;;12397210;28;20069;-36
2023/06/15 05:14:43;;;;;;;9.63;3.47;;;16.60;99.90;;;;;;12414236;28;20065;-37
2023/06/15 05:20:46;;;;;;;6.13;3.05;;;16.60;99.90;;;;;;12415495;28;20046;-36
2023/06/15 05:26:48;;;;;;;5.07;3.00;;;16.90;99.90;;;;;;12413830;28;20581;-36
2023/06/15 05:32:50;;;;;;;10.63;3.50;;;17.00;99.90;;;;;;12382335;28;20054;-36
2023/06/15 05:38:52;;;;;;;5.80;3.75;;;17.00;99.90;;;;;;12387733;28;20118;-36
2023/06/15 05:44:55;;;;;;;5.30;3.20;;;16.50;99.90;;;;;;12390153;28;20491;-36
2023/06/15 05:50:56;;;;;;;5.60;3.22;;;16.50;99.90;;;;;;12391578;28;20046;-36
2023/06/15 05:56:58;;;;;;;7.18;3.25;;;16.90;99.90;;;;;;12377839;28;20458;-37
2023/06/15 06:03:01;;;;;;;5.82;3.35;;;17.00;99.90;;;;;;12402361;28;20045;-36
2023/06/15 06:09:03;;;;;;;6.68;3.30;;;17.00;99.90;;;;;;12394144;28;20058;-36
2023/06/15 06:15:05;;;;;;;9.00;3.20;;;17.20;99.90;;;;;;12402987;28;20074;-36
2023/06/15 06:21:07;;;;;;;11.88;3.15;;;17.50;99.90;;;;;;12393476;28;20057;-38
2023/06/15 06:27:09;;;;;;;7.07;3.17;;;17.50;99.90;;;;;;12400166;28;20062;-37
2023/06/15 06:33:11;;;;;;;6.93;3.15;;;17.80;99.90;;;;;;12390487;28;20042;-37
2023/06/15 06:39:13;;;;;;;11.18;3.58;;;17.90;99.90;;;;;;12389396;28;20042;-36
2023/06/15 06:45:15;;;;;;;4.63;2.78;;;18.20;99.90;;;;;;12396063;28;21748;-37
2023/06/15 06:51:18;;;;;;;5.43;2.72;;;18.30;99.90;;;;;;12406860;28;20043;-37
2023/06/15 06:57:20;;;;;;;8.88;3.15;;;18.10;99.90;;;;;;12385447;28;20414;-36
2023/06/15 07:03:22;;;;;;;12.85;3.20;;;18.10;99.90;;;;;;12413371;28;20049;-36
2023/06/15 07:09:25;;;;;;;4.68;2.63;;;18.50;99.90;;;;;;12428583;28;20050;-37
2023/06/15 07:15:27;;;;;;;6.38;2.45;;;19.00;99.90;;;;;;12403621;28;20078;-36
2023/06/15 07:21:29;;;;;;;6.18;2.78;;;19.30;99.90;;;;;;12416583;28;20065;-37
2023/06/15 07:27:31;;;;;;;7.28;2.80;;;19.60;99.90;;;;;;12421583;28;20070;-37
2023/06/15 07:33:33;;;;;;;6.60;2.65;;;19.60;99.90;;;;;;12404387;28;20039;-37
2023/06/15 07:39:36;;;;;;;5.40;2.25;;;19.80;99.90;;;;;;12394005;28;20049;-37
2023/06/15 07:45:38;;;;;;;6.22;2.33;;;20.00;99.90;;;;;;12400064;28;20066;-37
2023/06/15 07:51:41;;;;;;;7.35;2.60;;;20.20;99.90;;;;;;12404045;28;20046;-37
2023/06/15 07:57:57;;;;;;;6.32;2.97;;;20.20;99.90;;;;;;12397394;28;20112;-37
2023/06/15 08:04:00;;;;;;;6.00;2.70;;;20.50;99.90;;;;;;12411240;28;20506;-37
2023/06/15 08:10:03;;;;;;;5.20;2.38;;;20.60;99.90;;;;;;12394674;28;20475;-36
2023/06/15 08:16:06;;;;;;;5.23;2.17;;;20.70;99.90;;;;;;12425596;28;20053;-36
2023/06/15 08:22:08;;;;;;;7.37;2.63;;;20.80;99.90;;;;;;12404620;28;20058;-37
2023/06/15 08:28:10;;;;;;;5.93;2.38;;;20.70;99.90;;;;;;12401787;28;20298;-37
2023/06/15 08:34:12;;;;;;;5.68;2.67;;;20.60;99.90;;;;;;12408151;28;20042;-37
2023/06/15 08:40:14;;;;;;;8.13;2.33;;;20.80;99.90;;;;;;12418061;28;20049;-36
2023/06/15 08:46:17;;;;;;;8.10;2.37;;;20.90;99.90;;;;;;12403691;28;20088;-36
2023/06/15 08:52:23;;;;;;;9.77;2.10;;;21.10;99.90;;;;;;12405753;28;20057;-36
2023/06/15 08:58:25;;;;;;;5.90;2.33;;;21.40;99.90;;;;;;12401909;28;20537;-36
2023/06/15 09:04:29;;;;;;;6.22;2.35;;;21.20;99.90;;;;;;12401676;28;21184;-36
2023/06/15 09:10:36;;;;;;;7.20;2.50;;;21.40;99.90;;;;;;12407358;28;20084;-36
2023/06/15 09:16:40;;;;;;;6.05;2.20;;;21.40;99.90;;;;;;12414189;28;20049;-37
2023/06/15 09:22:43;;;;;;;6.88;2.50;;;21.90;99.90;;;;;;12405859;28;20045;-36
2023/06/15 09:28:45;;;;;;;8.05;2.53;;;22.40;99.90;;;;;;12400926;28;20422;-37
2023/06/15 09:35:00;;;;;;;4.50;2.53;;;23.00;99.90;;;;;;12403149;28;20128;-37
2023/06/15 09:41:03;;;;;;;8.65;2.58;;;22.40;99.90;;;;;;12400719;28;20483;-37
2023/06/15 09:47:15;;;;;;;7.75;2.30;;;22.90;99.90;;;;;;12390003;28;20047;-37
2023/06/15 09:53:18;;;;;;;8.75;3.03;;;23.20;99.90;;;;;;12418857;28;20058;-37
2023/06/15 09:59:21;;;;;;;5.18;2.65;;;22.90;99.90;;;;;;12415402;28;20065;-37
2023/06/15 10:05:32;;;;;;;6.72;1.95;;;23.60;99.90;;;;;;12397067;28;20042;-37
2023/06/15 10:11:39;;;;;;;6.50;2.25;;;23.80;99.90;;;;;;12405832;28;20805;-37
2023/06/15 10:17:46;;;;;;;5.30;2.40;;;24.00;99.90;;;;;;12413041;28;20046;-36
2023/06/15 10:23:53;;;;;;;2.95;1.80;;;23.60;99.90;;;;;;12423191;28;20054;-37
2023/06/15 10:30:12;;;;;;;4.35;1.83;;;24.10;99.90;;;;;;12412719;28;20058;-37
2023/06/15 10:36:22;;;;;;;4.55;1.90;;;23.90;99.90;;;;;;12412893;28;20042;-37
2023/06/15 10:42:27;;;;;;;5.63;1.83;;;24.00;99.90;;;;;;12413993;28;20043;-37
2023/06/15 10:48:30;;;;;;;4.80;2.13;;;24.20;99.90;;;;;;12405806;28;20061;-37
2023/06/15 10:54:36;;;;;;;4.68;2.03;;;23.40;99.90;;;;;;12390306;28;20129;-37
2023/06/15 11:00:42;;;;;;;3.90;2.05;;;24.00;99.90;;;;;;12406870;28;20046;-37
2023/06/15 11:06:55;;;;;;;4.22;2.00;;;24.00;99.90;;;;;;12412008;28;20049;-37
2023/06/15 11:13:05;;;;;;;7.82;2.83;;;24.20;99.90;;;;;;12424377;28;20049;-37
2023/06/15 11:19:11;;;;;;;4.22;2.10;;;24.60;99.90;;;;;;12416313;28;20495;-37
2023/06/15 11:25:12;;;;;;;6.47;2.40;;;24.20;99.90;;;;;;12413569;28;20081;-38
2023/06/15 11:31:16;;;;;;;3.78;2.05;;;24.70;99.90;;;;;;12410199;28;20057;-39
2023/06/15 11:37:22;;;;;;;8.32;2.40;;;24.50;99.90;;;;;;12425137;28;20054;-38
2023/06/15 11:43:24;;;;;;;5.03;2.42;;;24.10;99.90;;;;;;12398874;28;20085;-37
2023/06/15 11:49:36;;;;;;;9.70;2.15;;;24.30;99.90;;;;;;12425487;28;20414;-37
2023/06/15 11:55:45;;;;;;;5.13;2.10;;;24.60;99.90;;;;;;12395997;28;20446;-37
2023/06/15 12:01:49;;;;;;;7.20;2.10;;;24.40;99.90;;;;;;12425885;28;20065;-37
2023/06/15 12:07:51;;;;;;;6.00;2.20;;;24.70;99.90;;;;;;12419317;28;20046;-37
2023/06/15 12:14:00;;;;;;;5.17;2.20;;;25.00;99.90;;;;;;12411463;28;20046;-37
2023/06/15 12:20:14;;;;;;;6.03;2.20;;;25.30;99.90;;;;;;12408144;28;20542;-37
2023/06/15 12:26:18;;;;;;;3.85;1.88;;;25.50;99.90;;;;;;12374422;28;20046;-37
2023/06/15 12:32:24;;;;;;;8.15;2.60;;;25.30;99.90;;;;;;12359845;28;20069;-37
2023/06/15 12:38:28;;;;;;;6.88;2.10;;;25.20;99.90;;;;;;12336606;28;20053;-37
2023/06/15 12:44:34;;;;;;;4.18;2.45;;;25.00;99.90;;;;;;12406356;28;20129;-37
2023/06/15 12:50:37;;;;;;;3.75;2.47;;;25.20;99.90;;;;;;12393006;28;20406;-38
2023/06/15 12:56:39;;;;;;;6.15;2.40;;;24.10;99.90;;;;;;12407942;28;20061;-37
2023/06/15 13:02:41;;;;;;;5.63;2.92;;;23.70;99.90;;;;;;12419131;28;20213;-37
2023/06/15 13:08:44;;;;;;;6.43;2.87;;;23.80;99.90;;;;;;12398956;28;20049;-37
2023/06/15 13:14:46;;;;;;;;;;;23.80;99.90;;;;;;12399971;28;20062;-37
2023/06/15 13:20:48;;;;;;;3.78;2.28;;;23.50;99.90;;;;;;12391300;28;19932;-36
2023/06/15 13:26:50;;;;;;;5.28;2.53;;;23.00;99.90;;;;;;12408487;28;20632;-37
2023/06/15 13:32:52;;;;;;;5.63;2.45;;;22.70;99.90;;;;;;12401065;28;20054;-37
2023/06/15 13:38:54;;;;;;;5.20;2.50;;;22.70;99.90;;;;;;12397119;28;20062;-37
2023/06/15 13:44:57;;;;;;;6.72;2.65;;;23.20;99.90;;;;;;12408261;28;20175;-37
2023/06/15 13:51:00;;;;;;;4.93;2.60;;;23.60;99.90;;;;;;12405746;28;20065;-37
2023/06/15 13:57:02;;;;;;;8.75;2.72;;;24.10;99.90;;;;;;12412590;28;20053;-38
2023/06/15 14:03:05;;;;;;;8.70;2.50;;;24.20;99.90;;;;;;12422702;28;20065;-37
2023/06/15 14:09:07;;;;;;;4.18;2.42;;;23.80;99.90;;;;;;12419521;28;20062;-39
2023/06/15 14:15:10;;;;;;;6.28;2.40;;;23.40;99.90;;;;;;12415324;28;20034;-37
2023/06/15 14:21:12;;;;;;;8.68;2.70;;;23.10;99.90;;;;;;12402264;28;20061;-37
2023/06/15 14:27:15;;;;;;;10.13;3.10;;;23.10;99.90;;;;;;12405454;28;20057;-37
2023/06/15 14:33:18;;;;;;;4.50;2.50;;;23.50;99.90;;;;;;12427133;28;20077;-37
2023/06/15 14:39:20;;;;;;;4.57;2.85;;;23.70;99.90;;;;;;12417899;28;20909;-37
2023/06/15 14:45:22;;;;;;;4.53;2.50;;;23.50;99.90;;;;;;12402953;28;20084;-37
2023/06/15 14:51:24;;;;;;;5.80;2.42;;;23.40;99.90;;;;;;12399613;28;20050;-36
2023/06/15 14:57:26;;;;;;;6.80;2.60;;;23.70;99.90;;;;;;12427795;28;20486;-37
2023/06/15 15:03:28;;;;;;;5.70;2.28;;;23.20;99.90;;;;;;12433679;28;20502;-38
2023/06/15 15:09:30;;;;;;;4.20;2.65;;;23.30;99.90;;;;;;12393120;28;20140;-37
2023/06/15 15:15:32;;;;;;;5.75;2.60;;;24.00;99.90;;;;;;12426501;28;20049;-38
2023/06/15 15:21:34;;;;;;;4.43;2.50;;;24.50;99.90;;;;;;12398759;28;20120;-37
2023/06/15 15:27:36;;;;;;;7.50;2.50;;;24.60;99.90;;;;;;12414965;28;20047;-38
2023/06/15 15:33:38;;;;;;;8.82;2.30;;;24.10;99.90;;;;;;12413383;28;20042;-37
2023/06/15 15:39:40;;;;;;;4.78;2.40;;;24.20;99.90;;;;;;12421856;28;20050;-37
2023/06/15 15:45:43;;;;;;;8.05;2.78;;;24.50;99.90;;;;;;12427276;28;20041;-37
2023/06/15 15:51:45;;;;;;;5.17;2.47;;;24.60;99.90;;;;;;12406413;28;20650;-38
2023/06/15 15:57:47;;;;;;;5.10;2.92;;;24.70;99.90;;;;;;12422016;28;20300;-38
2023/06/15 16:03:49;;;;;;;5.97;2.67;;;24.60;99.90;;;;;;12407622;28;20478;-39
2023/06/15 16:09:51;;;;;;;6.22;2.40;;;24.20;99.90;;;;;;12415778;28;20049;-37
2023/06/15 16:15:53;;;;;;;7.10;2.27;;;24.20;99.90;;;;;;12423014;28;20050;-37
2023/06/15 16:22:15;;;;;;;4.75;2.40;;;24.50;99.90;;;;;;12415906;28;20054;-38
2023/06/15 16:28:17;;;;;;;9.15;2.40;;;24.40;99.90;;;;;;12400407;28;20075;-37
2023/06/15 16:34:19;;;;;;;5.72;2.35;;;23.90;99.90;;;;;;12414188;28;20041;-37
2023/06/15 16:40:21;;;;;;;8.98;2.28;;;23.20;99.90;;;;;;12415498;28;20603;-37
2023/06/15 16:46:23;;;;;;;4.95;2.20;;;22.90;99.90;;;;;;12421299;28;20100;-37
2023/06/15 16:52:26;;;;;;;4.78;2.63;;;22.80;99.90;;;;;;12418191;28;20132;-36
2023/06/15 16:58:28;;;;;;;5.70;2.83;;;22.40;99.90;;;;;;12410944;28;20050;-36
2023/06/15 17:04:31;;;;;;;4.22;2.20;;;22.30;99.90;;;;;;12395477;28;20109;-36
2023/06/15 17:10:32;;;;;;;5.22;2.50;;;22.20;99.90;;;;;;12393496;28;20086;-37
2023/06/15 17:16:34;;;;;;;5.03;2.50;;;22.10;99.90;;;;;;12402519;28;20407;-36
2023/06/15 17:22:37;;;;;;;5.20;2.47;;;21.90;99.90;;;;;;12408588;28;20171;-36
2023/06/15 17:28:39;;;;;;;5.28;2.45;;;21.90;99.90;;;;;;12411205;28;20062;-36
2023/06/15 17:34:41;;;;;;;6.97;2.50;;;22.00;99.90;;;;;;12401740;28;20082;-37
2023/06/15 17:40:43;;;;;;;6.65;2.58;;;21.90;99.90;;;;;;12404048;28;20050;-37
2023/06/15 17:46:44;;;;;;;6.13;2.58;;;21.80;99.90;;;;;;12397310;28;20042;-37
2023/06/15 17:52:46;;;;;;;4.53;2.03;;;21.60;99.90;;;;;;12425575;28;20050;-36
2023/06/15 17:58:48;;;;;;;7.35;2.30;;;21.50;99.90;;;;;;12408998;28;20062;-37
2023/06/15 18:04:51;;;;;;;5.10;2.15;;;21.40;99.90;;;;;;12413192;28;20080;-36
2023/06/15 18:10:55;;;;;;;4.90;2.10;;;21.30;99.90;;;;;;12400090;28;20054;-36
2023/06/15 18:16:56;;;;;;;5.35;2.20;;;21.50;99.90;;;;;;12418932;28;20104;-36
2023/06/15 18:23:01;;;;;;;4.07;2.22;;;21.40;99.90;;;;;;12404899;28;20059;-36
2023/06/15 18:29:03;;;;;;;7.90;2.55;;;21.20;99.90;;;;;;12423396;28;20050;-38
2023/06/15 18:35:06;;;;;;;3.42;2.20;;;20.90;99.90;;;;;;12401406;28;20760;-37
2023/06/15 18:41:07;;;;;;;4.57;2.28;;;20.80;99.90;;;;;;12407997;28;20487;-36
2023/06/15 18:47:15;;;;;;;4.55;2.47;;;20.80;99.90;;;;;;12414468;28;20054;-37
2023/06/15 18:53:17;;;;;;;8.75;3.22;;;20.80;99.90;;;;;;12422277;28;20054;-37
2023/06/15 18:59:19;;;;;;;4.67;2.70;;;20.70;99.90;;;;;;12401931;28;20050;-36
2023/06/15 19:05:21;;;;;;;3.88;2.58;;;20.60;99.90;;;;;;12412747;28;20057;-36
2023/06/15 19:11:23;;;;;;;4.95;2.80;;;20.50;99.90;;;;;;12413192;28;20046;-38
2023/06/15 19:17:26;;;;;;;4.07;2.40;;;20.40;99.90;;;;;;12409884;28;20038;-37
2023/06/15 19:23:28;;;;;;;5.27;2.60;;;20.40;99.90;;;;;;12428920;28;20038;-37
2023/06/15 19:29:32;;;;;;;6.22;2.60;;;20.30;99.90;;;;;;12414901;28;20065;-37
2023/06/15 19:35:35;;;;;;;4.60;2.83;;;20.30;99.90;;;;;;12422860;28;20038;-37
2023/06/15 19:41:37;;;;;;;5.28;3.03;;;20.20;99.90;;;;;;12406489;28;20084;-36
2023/06/15 19:47:39;;;;;;;4.55;2.65;;;20.20;99.90;;;;;;12404195;28;20065;-36
2023/06/15 19:53:42;;;;;;;5.40;2.50;;;20.20;99.90;;;;;;12407477;28;20092;-36
2023/06/15 19:59:44;;;;;;;3.65;2.38;;;20.20;99.90;;;;;;12406062;28;20050;-36
2023/06/15 20:05:46;;;;;;;5.40;2.72;;;20.20;99.90;;;;;;12419003;28;20050;-37
2023/06/15 20:11:50;;;;;;;6.32;2.45;;;20.30;99.90;;;;;;12406713;28;20066;-37
2023/06/15 20:17:52;;;;;;;4.88;2.60;;;20.20;99.90;;;;;;12416599;28;20058;-36
2023/06/15 20:23:54;;;;;;;6.75;2.90;;;20.00;99.90;;;;;;12402826;28;20058;-37
2023/06/15 20:29:56;;;;;;;4.43;2.78;;;20.00;99.90;;;;;;12399532;28;20058;-36
2023/06/15 20:35:59;;;;;;;5.18;2.50;;;19.90;99.90;;;;;;12414217;28;20107;-36
2023/06/15 20:42:01;;;;;;;7.10;2.70;;;19.80;99.90;;;;;;12397525;28;20525;-37
2023/06/15 20:48:03;;;;;;;7.80;3.05;;;19.80;99.90;;;;;;12379394;28;20057;-36
2023/06/15 20:54:05;;;;;;;6.43;3.15;;;19.90;99.90;;;;;;12401931;28;20041;-36
2023/06/15 21:00:09;;;;;;;7.20;2.88;;;19.90;99.90;;;;;;12401525;28;20612;-36
2023/06/15 21:06:11;;;;;;;6.18;2.97;;;19.90;99.90;;;;;;12408951;28;20042;-36
2023/06/15 21:12:12;;;;;;;4.63;2.72;;;19.80;99.90;;;;;;12413801;28;20054;-36
2023/06/15 21:18:15;;;;;;;4.93;2.60;;;19.70;99.90;;;;;;12427777;28;20046;-37
2023/06/15 21:24:16;;;;;;;6.63;3.00;;;19.60;99.90;;;;;;12428818;28;20567;-36
2023/06/15 21:30:18;;;;;;;6.38;2.60;;;19.50;99.90;;;;;;12386628;28;20070;-36
2023/06/15 21:36:20;;;;;;;6.25;2.20;;;19.40;99.90;;;;;;12387833;28;20061;-36
2023/06/15 21:42:22;;;;;;;6.82;3.10;;;19.40;99.90;;;;;;12403623;28;20482;-36
2023/06/15 21:48:24;;;;;;;6.60;2.90;;;19.30;99.90;;;;;;12386175;28;20054;-36
2023/06/15 21:54:26;;;;;;;4.93;2.72;;;19.20;99.90;;;;;;12400217;28;20085;-36
2023/06/15 22:00:28;;;;;;;6.53;2.92;;;19.10;99.90;;;;;;12410281;28;20570;-36
2023/06/15 22:06:30;;;;;;;7.47;3.13;;;18.90;99.90;;;;;;12394254;28;20050;-36
2023/06/15 22:12:33;;;;;;;7.05;2.60;;;19.00;99.90;;;;;;12396993;28;20175;-36
2023/06/15 22:18:37;;;;;;;9.38;2.70;;;19.00;99.90;;;;;;12442208;28;20963;-36
2023/06/15 22:24:40;;;;;;;3.83;2.60;;;19.00;99.90;;;;;;12412707;28;20096;-37
2023/06/15 22:30:42;;;;;;;3.85;2.53;;;18.60;99.90;;;;;;12408386;28;20065;-36
2023/06/15 22:36:44;;;;;;;4.90;2.97;;;18.30;99.90;;;;;;12391735;28;20053;-36
2023/06/15 22:42:46;;;;;;;8.32;3.05;;;18.20;99.90;;;;;;12407898;28;20054;-36
2023/06/15 22:48:48;;;;;;;5.05;2.50;;;18.20;99.90;;;;;;12400799;28;20135;-36
2023/06/15 22:54:51;;;;;;;4.00;2.63;;;18.30;99.90;;;;;;12394358;28;20082;-36
2023/06/15 23:00:54;;;;;;;4.35;3.00;;;18.30;99.90;;;;;;12425239;28;20069;-36
2023/06/15 23:06:56;;;;;;;4.07;2.75;;;18.10;99.90;;;;;;12420293;28;20510;-36
2023/06/15 23:12:58;;;;;;;4.20;2.65;;;17.80;99.90;;;;;;12421890;28;20198;-36
2023/06/15 23:19:02;;;;;;;4.43;2.83;;;17.70;99.90;;;;;;12414268;28;20065;-36
2023/06/15 23:25:05;;;;;;;4.55;2.38;;;17.70;99.90;;;;;;12410462;28;20133;-36
2023/06/15 23:31:07;;;;;;;7.07;2.90;;;17.70;99.90;;;;;;12384594;28;20046;-36
2023/06/15 23:37:09;;;;;;;11.68;3.50;;;17.60;99.90;;;;;;12405598;28;20050;-36
2023/06/15 23:43:11;;;;;;;6.93;2.90;;;17.40;99.90;;;;;;12401320;28;20061;-36
2023/06/15 23:49:13;;;;;;;7.40;3.05;;;17.30;99.90;;;;;;12402644;28;20085;-36
2023/06/15 23:55:15;;;;;;;4.28;2.80;;;17.30;99.90;;;;;;12420336;28;20498;-36
